sensor_id;sensor_type;location;lat;lon;timestamp;pressure;altitude;pressure_sealevel;temperature;humidity
37298;BME280;30517;51.932;4.278;2023-04-23T00:01:59;100712.47;;;13.23;56.76
37298;BME280;30517;51.932;4.278;2023-04-23T00:04:50;100712.47;;;13.20;56.64
37298;BME280;30517;51.932;4.278;2023-04-23T00:07:32;100694.84;;;13.19;57.08
37298;BME280;30517;51.932;4.278;2023-04-23T00:10:13;100701.03;;;13.20;56.94
37298;BME280;30517;51.932;4.278;2023-04-23T00:12:55;100676.47;;;13.10;56.63
37298;BME280;30517;51.932;4.278;2023-04-23T00:15:36;100673.03;;;13.03;56.81
37298;BME280;30517;51.932;4.278;2023-04-23T00:18:17;100686.06;;;13.17;57.31
37298;BME280;30517;51.932;4.278;2023-04-23T00:20:59;100695.78;;;13.17;56.93
37298;BME280;30517;51.932;4.278;2023-04-23T00:23:40;100687.88;;;13.15;56.66
37298;BME280;30517;51.932;4.278;2023-04-23T00:26:20;100665.94;;;13.07;56.86
37298;BME280;30517;51.932;4.278;2023-04-23T00:29:01;100677.28;;;13.14;56.73
37298;BME280;30517;51.932;4.278;2023-04-23T00:31:42;100652.75;;;13.02;56.96
37298;BME280;30517;51.932;4.278;2023-04-23T00:34:23;100658.94;;;13.01;56.81
37298;BME280;30517;51.932;4.278;2023-04-23T00:37:04;100631.75;;;12.92;56.71
37298;BME280;30517;51.932;4.278;2023-04-23T00:39:45;100651.03;;;13.00;56.79
37298;BME280;30517;51.932;4.278;2023-04-23T00:42:27;100644.91;;;12.95;57.08
37298;BME280;30517;51.932;4.278;2023-04-23T00:45:08;100659.88;;;12.99;56.61
37298;BME280;30517;51.932;4.278;2023-04-23T00:47:49;100653.56;;;13.06;56.87
37298;BME280;30517;51.932;4.278;2023-04-23T00:50:30;100608.09;;;12.79;56.77
37298;BME280;30517;51.932;4.278;2023-04-23T00:53:11;100639.53;;;13.01;56.85
37298;BME280;30517;51.932;4.278;2023-04-23T00:55:52;100638.72;;;12.96;56.89
37298;BME280;30517;51.932;4.278;2023-04-23T00:58:35;100631.84;;;12.86;56.77
37298;BME280;30517;51.932;4.278;2023-04-23T01:01:16;100651.13;;;12.94;56.43
37298;BME280;30517;51.932;4.278;2023-04-23T01:04:00;100616.03;;;12.79;56.83
37298;BME280;30517;51.932;4.278;2023-04-23T01:06:41;100609.91;;;12.77;56.86
37298;BME280;30517;51.932;4.278;2023-04-23T01:09:23;100633.41;;;12.96;57.25
37298;BME280;30517;51.932;4.278;2023-04-23T01:12:08;100643.09;;;12.98;57.10
37298;BME280;30517;51.932;4.278;2023-04-23T01:14:50;100626.44;;;12.90;57.01
37298;BME280;30517;51.932;4.278;2023-04-23T01:17:31;100637.84;;;12.97;57.32
37298;BME280;30517;51.932;4.278;2023-04-23T01:30:59;100595.97;;;12.65;56.83
37298;BME280;30517;51.932;4.278;2023-04-23T01:33:41;100644.97;;;12.90;57.50
37298;BME280;30517;51.932;4.278;2023-04-23T01:36:22;100637.97;;;12.88;56.80
37298;BME280;30517;51.932;4.278;2023-04-23T01:39:03;100641.47;;;12.91;56.80
37298;BME280;30517;51.932;4.278;2023-04-23T01:41:46;100621.25;;;12.86;56.90
37298;BME280;30517;51.932;4.278;2023-04-23T01:44:27;100628.22;;;12.90;57.10
37298;BME280;30517;51.932;4.278;2023-04-23T01:47:08;100627.38;;;12.89;57.22
37298;BME280;30517;51.932;4.278;2023-04-23T01:49:50;100603.75;;;12.75;57.07
37298;BME280;30517;51.932;4.278;2023-04-23T01:52:31;100627.38;;;12.89;56.53
37298;BME280;30517;51.932;4.278;2023-04-23T01:55:14;100613.25;;;12.89;57.29
37298;BME280;30517;51.932;4.278;2023-04-23T01:57:55;100616.78;;;12.88;56.67
37298;BME280;30517;51.932;4.278;2023-04-23T02:00:35;100601.00;;;12.83;56.78
37298;BME280;30517;51.932;4.278;2023-04-23T02:03:16;100614.13;;;12.88;56.76
37298;BME280;30517;51.932;4.278;2023-04-23T02:05:57;100601.97;;;12.76;56.89
37298;BME280;30517;51.932;4.278;2023-04-23T02:08:40;100619.47;;;12.84;57.05
37298;BME280;30517;51.932;4.278;2023-04-23T02:11:21;100595.88;;;12.72;56.86
37298;BME280;30517;51.932;4.278;2023-04-23T02:14:02;100618.72;;;12.78;56.58
37298;BME280;30517;51.932;4.278;2023-04-23T02:16:43;100587.97;;;12.69;57.27
37298;BME280;30517;51.932;4.278;2023-04-23T02:19:24;100613.38;;;12.79;57.05
37298;BME280;30517;51.932;4.278;2023-04-23T02:22:05;100586.31;;;12.62;57.25
37298;BME280;30517;51.932;4.278;2023-04-23T02:24:46;100620.34;;;12.85;56.86
37298;BME280;30517;51.932;4.278;2023-04-23T02:27:27;100620.38;;;12.83;57.28
37298;BME280;30517;51.932;4.278;2023-04-23T02:30:09;100610.84;;;12.73;57.17
37298;BME280;30517;51.932;4.278;2023-04-23T02:32:50;100595.94;;;12.66;57.12
37298;BME280;30517;51.932;4.278;2023-04-23T02:35:31;100617.75;;;12.82;57.20
37298;BME280;30517;51.932;4.278;2023-04-23T02:38:12;100569.63;;;12.55;57.51
37298;BME280;30517;51.932;4.278;2023-04-23T02:40:53;100615.25;;;12.73;57.14
37298;BME280;30517;51.932;4.278;2023-04-23T02:43:34;100599.38;;;12.71;56.88
37298;BME280;30517;51.932;4.278;2023-04-23T02:46:14;100531.13;;;12.36;57.47
37298;BME280;30517;51.932;4.278;2023-04-23T02:48:55;100605.44;;;12.79;56.64
37298;BME280;30517;51.932;4.278;2023-04-23T02:51:36;100605.44;;;12.79;57.27
37298;BME280;30517;51.932;4.278;2023-04-23T02:54:17;100589.66;;;12.73;57.74
37298;BME280;30517;51.932;4.278;2023-04-23T02:56:57;100599.31;;;12.77;57.13
37298;BME280;30517;51.932;4.278;2023-04-23T02:59:38;100603.69;;;12.78;57.58
37298;BME280;30517;51.932;4.278;2023-04-23T03:02:19;100602.84;;;12.78;57.42
37298;BME280;30517;51.932;4.278;2023-04-23T03:05:00;100580.16;;;12.60;57.00
37298;BME280;30517;51.932;4.278;2023-04-23T03:07:41;100605.50;;;12.76;57.29
37298;BME280;30517;51.932;4.278;2023-04-23T03:10:22;100587.13;;;12.66;57.42
37298;BME280;30517;51.932;4.278;2023-04-23T03:13:03;100594.91;;;12.76;56.89
37298;BME280;30517;51.932;4.278;2023-04-23T03:15:44;100600.19;;;12.76;57.40
37298;BME280;30517;51.932;4.278;2023-04-23T03:18:24;100589.72;;;12.69;57.24
37298;BME280;30517;51.932;4.278;2023-04-23T03:21:05;100589.66;;;12.73;56.73
37298;BME280;30517;51.932;4.278;2023-04-23T03:23:46;100589.59;;;12.76;57.00
37298;BME280;30517;51.932;4.278;2023-04-23T03:26:27;100591.38;;;12.76;57.08
37298;BME280;30517;51.932;4.278;2023-04-23T03:29:08;100591.41;;;12.74;57.25
37298;BME280;30517;51.932;4.278;2023-04-23T03:31:49;100580.06;;;12.66;56.94
37298;BME280;30517;51.932;4.278;2023-04-23T03:34:30;100545.03;;;12.50;57.39
37298;BME280;30517;51.932;4.278;2023-04-23T03:37:12;100581.78;;;12.69;56.81
37298;BME280;30517;51.932;4.278;2023-04-23T03:39:53;100562.59;;;12.56;56.92
37298;BME280;30517;51.932;4.278;2023-04-23T03:42:34;100599.38;;;12.73;56.98
37298;BME280;30517;51.932;4.278;2023-04-23T03:45:15;100592.50;;;12.61;57.39
37298;BME280;30517;51.932;4.278;2023-04-23T03:47:56;100592.31;;;12.72;57.06
37298;BME280;30517;51.932;4.278;2023-04-23T03:50:36;100581.13;;;12.56;57.13
37298;BME280;30517;51.932;4.278;2023-04-23T03:53:19;100558.22;;;12.52;56.86
37298;BME280;30517;51.932;4.278;2023-04-23T03:56:00;100591.44;;;12.71;56.98
37298;BME280;30517;51.932;4.278;2023-04-23T03:58:41;100603.84;;;12.69;56.37
37298;BME280;30517;51.932;4.278;2023-04-23T04:01:22;100599.44;;;12.70;56.77
37298;BME280;30517;51.932;4.278;2023-04-23T04:04:03;100586.25;;;12.65;57.26
37298;BME280;30517;51.932;4.278;2023-04-23T04:06:47;100583.56;;;12.70;57.24
37298;BME280;30517;51.932;4.278;2023-04-23T04:09:27;100578.31;;;12.63;56.88
37298;BME280;30517;51.932;4.278;2023-04-23T04:12:08;100582.69;;;12.66;57.00
37298;BME280;30517;51.932;4.278;2023-04-23T04:14:49;100576.66;;;12.58;57.06
37298;BME280;30517;51.932;4.278;2023-04-23T04:17:30;100587.13;;;12.67;57.02
37298;BME280;30517;51.932;4.278;2023-04-23T04:20:11;100545.97;;;12.45;57.12
37298;BME280;30517;51.932;4.278;2023-04-23T04:22:54;100587.13;;;12.66;57.23
37298;BME280;30517;51.932;4.278;2023-04-23T04:25:35;100572.16;;;12.63;57.26
37298;BME280;30517;51.932;4.278;2023-04-23T04:28:19;100573.06;;;12.62;57.52
37298;BME280;30517;51.932;4.278;2023-04-23T04:31:00;100550.34;;;12.50;57.65
37298;BME280;30517;51.932;4.278;2023-04-23T04:33:41;100577.47;;;12.63;57.36
37298;BME280;30517;51.932;4.278;2023-04-23T04:36:25;100567.84;;;12.59;57.45
37298;BME280;30517;51.932;4.278;2023-04-23T04:39:07;100585.44;;;12.60;57.07
37298;BME280;30517;51.932;4.278;2023-04-23T04:41:48;100585.34;;;12.68;57.38
37298;BME280;30517;51.932;4.278;2023-04-23T04:44:29;100542.50;;;12.43;57.43
37298;BME280;30517;51.932;4.278;2023-04-23T04:47:10;100580.09;;;12.63;57.71
37298;BME280;30517;51.932;4.278;2023-04-23T04:49:52;100572.22;;;12.60;57.13
37298;BME280;30517;51.932;4.278;2023-04-23T04:52:36;100585.34;;;12.66;57.17
37298;BME280;30517;51.932;4.278;2023-04-23T04:55:17;100559.19;;;12.45;57.18
37298;BME280;30517;51.932;4.278;2023-04-23T04:58:00;100582.84;;;12.58;57.42
37298;BME280;30517;51.932;4.278;2023-04-23T05:00:41;100588.03;;;12.65;57.18
37298;BME280;30517;51.932;4.278;2023-04-23T05:03:22;100595.09;;;12.64;57.92
37298;BME280;30517;51.932;4.278;2023-04-23T05:06:03;100601.31;;;12.60;57.75
37298;BME280;30517;51.932;4.278;2023-04-23T05:08:44;100594.19;;;12.63;57.53
37298;BME280;30517;51.932;4.278;2023-04-23T05:11:27;100590.69;;;12.65;57.26
37298;BME280;30517;51.932;4.278;2023-04-23T05:14:08;100588.91;;;12.63;57.25
37298;BME280;30517;51.932;4.278;2023-04-23T05:16:49;100574.06;;;12.55;57.44
37298;BME280;30517;51.932;4.278;2023-04-23T05:19:30;100590.69;;;12.63;57.52
37298;BME280;30517;51.932;4.278;2023-04-23T05:22:11;100582.78;;;12.61;57.25
37298;BME280;30517;51.932;4.278;2023-04-23T05:24:52;100574.81;;;12.63;57.45
37298;BME280;30517;51.932;4.278;2023-04-23T05:27:33;100579.28;;;12.61;56.92
37298;BME280;30517;51.932;4.278;2023-04-23T05:30:14;100579.28;;;12.61;57.49
37298;BME280;30517;51.932;4.278;2023-04-23T05:32:55;100595.16;;;12.61;57.20
37298;BME280;30517;51.932;4.278;2023-04-23T05:35:36;100561.84;;;12.45;57.26
37298;BME280;30517;51.932;4.278;2023-04-23T05:38:21;100480.47;;;12.03;57.32
37298;BME280;30517;51.932;4.278;2023-04-23T05:41:01;100588.09;;;12.61;57.41
37298;BME280;30517;51.932;4.278;2023-04-23T05:43:42;100581.94;;;12.59;57.16
37298;BME280;30517;51.932;4.278;2023-04-23T05:46:23;100568.00;;;12.47;56.75
37298;BME280;30517;51.932;4.278;2023-04-23T05:49:04;100600.44;;;12.61;56.97
37298;BME280;30517;51.932;4.278;2023-04-23T05:51:45;100570.53;;;12.53;56.65
37298;BME280;30517;51.932;4.278;2023-04-23T05:54:26;100580.16;;;12.61;56.92
37298;BME280;30517;51.932;4.278;2023-04-23T05:57:07;100580.16;;;12.60;56.65
37298;BME280;30517;51.932;4.278;2023-04-23T05:59:48;100510.47;;;12.01;56.90
37298;BME280;30517;51.932;4.278;2023-04-23T06:02:29;100579.28;;;12.59;57.13
37298;BME280;30517;51.932;4.278;2023-04-23T06:05:10;100574.00;;;12.59;57.47
37298;BME280;30517;51.932;4.278;2023-04-23T06:07:53;100558.31;;;12.46;56.99
37298;BME280;30517;51.932;4.278;2023-04-23T06:10:34;100572.25;;;12.58;57.43
37298;BME280;30517;51.932;4.278;2023-04-23T06:13:15;100567.84;;;12.57;57.13
37298;BME280;30517;51.932;4.278;2023-04-23T06:15:56;100566.16;;;12.53;57.53
37298;BME280;30517;51.932;4.278;2023-04-23T06:18:37;100571.34;;;12.58;56.82
37298;BME280;30517;51.932;4.278;2023-04-23T06:21:18;100565.19;;;12.59;56.90
37298;BME280;30517;51.932;4.278;2023-04-23T06:23:59;100545.88;;;12.52;57.73
37298;BME280;30517;51.932;4.278;2023-04-23T06:26:40;100559.91;;;12.57;57.19
37298;BME280;30517;51.932;4.278;2023-04-23T06:29:21;100558.16;;;12.56;57.56
37298;BME280;30517;51.932;4.278;2023-04-23T06:32:02;100552.84;;;12.58;56.94
37298;BME280;30517;51.932;4.278;2023-04-23T06:34:47;100546.69;;;12.57;57.29
37298;BME280;30517;51.932;4.278;2023-04-23T06:37:28;100546.13;;;12.35;59.89
37298;BME280;30517;51.932;4.278;2023-04-23T06:40:10;100552.19;;;12.44;61.81
37298;BME280;30517;51.932;4.278;2023-04-23T06:42:51;100490.88;;;12.15;60.84
37298;BME280;30517;51.932;4.278;2023-04-23T06:45:33;100522.31;;;12.35;59.51
37298;BME280;30517;51.932;4.278;2023-04-23T06:48:14;100472.44;;;12.09;58.76
37298;BME280;30517;51.932;4.278;2023-04-23T06:50:55;100529.19;;;12.49;57.89
37298;BME280;30517;51.932;4.278;2023-04-23T06:53:39;100536.09;;;12.59;58.11
37298;BME280;30517;51.932;4.278;2023-04-23T06:56:20;100543.97;;;12.62;58.72
37298;BME280;30517;51.932;4.278;2023-04-23T06:59:01;100532.56;;;12.57;58.12
37298;BME280;30517;51.932;4.278;2023-04-23T07:01:42;100540.34;;;12.66;58.05
37298;BME280;30517;51.932;4.278;2023-04-23T07:04:23;100420.88;;;11.79;58.29
37298;BME280;30517;51.932;4.278;2023-04-23T07:07:04;100547.41;;;12.67;57.33
37298;BME280;30517;51.932;4.278;2023-04-23T07:09:45;100526.38;;;12.59;57.98
37298;BME280;30517;51.932;4.278;2023-04-23T07:12:26;100531.66;;;12.61;58.08
37298;BME280;30517;51.932;4.278;2023-04-23T07:15:29;100547.38;;;12.69;57.56
37298;BME280;30517;51.932;4.278;2023-04-23T07:18:09;100522.84;;;12.59;57.33
37298;BME280;30517;51.932;4.278;2023-04-23T07:20:50;100518.50;;;12.55;57.56
37298;BME280;30517;51.932;4.278;2023-04-23T07:23:31;100537.72;;;12.68;57.61
37298;BME280;30517;51.932;4.278;2023-04-23T07:26:12;100519.41;;;12.54;57.61
37298;BME280;30517;51.932;4.278;2023-04-23T07:28:53;100500.13;;;12.44;57.20
37298;BME280;30517;51.932;4.278;2023-04-23T07:31:34;100529.75;;;12.69;57.59
37298;BME280;30517;51.932;4.278;2023-04-23T07:34:15;100540.34;;;12.69;57.18
37298;BME280;30517;51.932;4.278;2023-04-23T07:36:56;100511.44;;;12.55;56.76
37298;BME280;30517;51.932;4.278;2023-04-23T07:39:37;100529.69;;;12.72;57.16
37298;BME280;30517;51.932;4.278;2023-04-23T07:42:18;100499.91;;;12.61;56.97
37298;BME280;30517;51.932;4.278;2023-04-23T07:44:58;100524.34;;;12.75;56.58
37298;BME280;30517;51.932;4.278;2023-04-23T07:47:39;100505.94;;;12.68;57.25
37298;BME280;30517;51.932;4.278;2023-04-23T07:50:20;100526.91;;;12.81;57.09
37298;BME280;30517;51.932;4.278;2023-04-23T07:53:01;100483.94;;;12.66;57.26
37298;BME280;30517;51.932;4.278;2023-04-23T07:55:45;100462.13;;;12.51;56.96
37298;BME280;30517;51.932;4.278;2023-04-23T07:58:26;100454.13;;;12.53;57.00
37298;BME280;30517;51.932;4.278;2023-04-23T08:08:21;100498.63;;;12.83;57.59
37298;BME280;30517;51.932;4.278;2023-04-23T08:11:02;100502.09;;;12.87;57.42
37298;BME280;30517;51.932;4.278;2023-04-23T08:13:43;100464.53;;;12.65;57.14
37298;BME280;30517;51.932;4.278;2023-04-23T08:16:24;100517.91;;;12.90;58.33
37298;BME280;30517;51.932;4.278;2023-04-23T08:19:05;100508.19;;;12.92;58.01
37298;BME280;30517;51.932;4.278;2023-04-23T08:21:46;100509.91;;;12.93;57.74
37298;BME280;30517;51.932;4.278;2023-04-23T08:24:27;100491.69;;;12.76;57.70
37298;BME280;30517;51.932;4.278;2023-04-23T08:27:09;100519.63;;;12.94;58.88
37298;BME280;30517;51.932;4.278;2023-04-23T08:29:50;100514.38;;;12.91;58.05
37298;BME280;30517;51.932;4.278;2023-04-23T08:32:31;100518.78;;;12.92;57.88
37298;BME280;30517;51.932;4.278;2023-04-23T08:35:12;100457.50;;;12.64;58.14
37298;BME280;30517;51.932;4.278;2023-04-23T08:37:53;100520.38;;;13.02;58.00
37298;BME280;30517;51.932;4.278;2023-04-23T08:40:35;100517.84;;;12.96;57.71
37298;BME280;30517;51.932;4.278;2023-04-23T08:43:19;100523.88;;;13.04;57.57
37298;BME280;30517;51.932;4.278;2023-04-23T08:46:02;100523.81;;;13.06;57.47
37298;BME280;30517;51.932;4.278;2023-04-23T08:48:46;100491.38;;;12.93;57.69
37298;BME280;30517;51.932;4.278;2023-04-23T08:51:31;100523.75;;;13.09;57.36
37298;BME280;30517;51.932;4.278;2023-04-23T08:54:25;100535.19;;;13.13;57.92
37298;BME280;30517;51.932;4.278;2023-04-23T08:57:07;100507.94;;;13.06;57.84
37298;BME280;30517;51.932;4.278;2023-04-23T08:59:49;100538.66;;;13.15;57.94
37298;BME280;30517;51.932;4.278;2023-04-23T09:02:31;100504.34;;;13.10;57.89
37298;BME280;30517;51.932;4.278;2023-04-23T09:05:13;100516.50;;;13.20;57.43
37298;BME280;30517;51.932;4.278;2023-04-23T09:07:55;100517.34;;;13.22;57.74
37298;BME280;30517;51.932;4.278;2023-04-23T09:10:39;100513.78;;;13.25;58.15
37298;BME280;30517;51.932;4.278;2023-04-23T09:13:21;100460.41;;;13.00;57.86
37298;BME280;30517;51.932;4.278;2023-04-23T09:16:03;100494.38;;;13.24;58.01
37298;BME280;30517;51.932;4.278;2023-04-23T09:18:45;100476.03;;;13.14;58.12
37298;BME280;30517;51.932;4.278;2023-04-23T09:21:26;100507.63;;;13.26;60.11
37298;BME280;30517;51.932;4.278;2023-04-23T09:24:08;100502.28;;;13.27;65.15
37298;BME280;30517;51.932;4.278;2023-04-23T09:26:53;100461.72;;;13.22;65.55
37298;BME280;30517;51.932;4.278;2023-04-23T09:29:34;100456.19;;;13.38;62.88
37298;BME280;30517;51.932;4.278;2023-04-23T09:32:15;100497.06;;;13.68;61.94
37298;BME280;30517;51.932;4.278;2023-04-23T09:34:56;100471.72;;;13.56;61.16
37298;BME280;30517;51.932;4.278;2023-04-23T09:37:40;100489.81;;;13.78;60.68
37298;BME280;30517;51.932;4.278;2023-04-23T09:40:22;100498.63;;;13.78;60.05
37298;BME280;30517;51.932;4.278;2023-04-23T09:43:04;100430.41;;;13.46;60.19
37298;BME280;30517;51.932;4.278;2023-04-23T09:45:47;100481.88;;;13.78;59.90
37298;BME280;30517;51.932;4.278;2023-04-23T09:48:40;100483.53;;;13.82;59.63
37298;BME280;30517;51.932;4.278;2023-04-23T09:51:24;100487.91;;;13.84;59.59
37298;BME280;30517;51.932;4.278;2023-04-23T09:54:13;100479.94;;;13.84;59.33
37298;BME280;30517;51.932;4.278;2023-04-23T09:56:54;100481.63;;;13.88;59.05
37298;BME280;30517;51.932;4.278;2023-04-23T09:59:41;100476.28;;;13.90;59.16
37298;BME280;30517;51.932;4.278;2023-04-23T10:02:26;100432.75;;;13.61;58.94
37298;BME280;30517;51.932;4.278;2023-04-23T10:05:19;100368.13;;;13.26;59.06
37298;BME280;30517;51.932;4.278;2023-04-23T10:08:00;100454.38;;;13.82;59.14
37298;BME280;30517;51.932;4.278;2023-04-23T10:10:44;100474.50;;;13.90;59.65
37298;BME280;30517;51.932;4.278;2023-04-23T10:13:26;100448.19;;;13.83;60.43
37298;BME280;30517;51.932;4.278;2023-04-23T10:16:08;100450.44;;;14.00;59.66
37298;BME280;30517;51.932;4.278;2023-04-23T10:18:50;100435.41;;;14.00;59.14
37298;BME280;30517;51.932;4.278;2023-04-23T10:21:33;100426.41;;;14.07;59.08
37298;BME280;30517;51.932;4.278;2023-04-23T10:24:16;100287.31;;;13.05;58.89
37298;BME280;30517;51.932;4.278;2023-04-23T10:27:00;100452.44;;;14.27;58.65
37298;BME280;30517;51.932;4.278;2023-04-23T10:29:42;100378.56;;;13.75;60.41
37298;BME280;30517;51.932;4.278;2023-04-23T10:32:24;100427.00;;;13.80;61.92
37298;BME280;30517;51.932;4.278;2023-04-23T10:35:06;100428.13;;;14.08;60.89
37298;BME280;30517;51.932;4.278;2023-04-23T10:37:48;100458.59;;;14.29;60.29
37298;BME280;30517;51.932;4.278;2023-04-23T10:40:32;100439.97;;;14.31;60.00
37298;BME280;30517;51.932;4.278;2023-04-23T10:43:16;100438.91;;;14.39;59.68
37298;BME280;30517;51.932;4.278;2023-04-23T10:45:59;100294.00;;;13.64;59.27
37298;BME280;30517;51.932;4.278;2023-04-23T10:51:46;100422.78;;;14.47;58.97
37298;BME280;30517;51.932;4.278;2023-04-23T10:54:29;100365.00;;;14.23;58.69
37298;BME280;30517;51.932;4.278;2023-04-23T10:57:10;100363.00;;;14.32;58.87
37298;BME280;30517;51.932;4.278;2023-04-23T10:59:53;100413.56;;;14.64;58.57
37298;BME280;30517;51.932;4.278;2023-04-23T11:02:42;100276.59;;;13.88;58.71
37298;BME280;30517;51.932;4.278;2023-04-23T11:05:26;100311.19;;;14.19;58.37
37298;BME280;30517;51.932;4.278;2023-04-23T11:08:10;100398.31;;;14.72;58.67
37298;BME280;30517;51.932;4.278;2023-04-23T11:10:55;100391.31;;;14.68;58.68
37298;BME280;30517;51.932;4.278;2023-04-23T11:13:50;100401.69;;;14.77;58.29
37298;BME280;30517;51.932;4.278;2023-04-23T11:16:32;100357.13;;;14.55;58.53
37298;BME280;30517;51.932;4.278;2023-04-23T11:19:15;100376.81;;;14.81;58.45
37298;BME280;30517;51.932;4.278;2023-04-23T11:21:59;100381.19;;;14.82;58.64
37298;BME280;30517;51.932;4.278;2023-04-23T11:24:41;100360.22;;;14.73;58.39
37298;BME280;30517;51.932;4.278;2023-04-23T11:27:23;100366.00;;;14.89;58.48
37298;BME280;30517;51.932;4.278;2023-04-23T11:30:12;100371.22;;;14.92;58.78
37298;BME280;30517;51.932;4.278;2023-04-23T11:32:55;100357.19;;;14.87;58.55
37298;BME280;30517;51.932;4.278;2023-04-23T11:35:36;100301.34;;;14.58;58.59
37298;BME280;30517;51.932;4.278;2023-04-23T11:38:19;100283.63;;;14.59;58.64
37298;BME280;30517;51.932;4.278;2023-04-23T11:41:01;100358.56;;;15.01;58.38
37298;BME280;30517;51.932;4.278;2023-04-23T11:43:42;100294.81;;;14.70;58.74
37298;BME280;30517;51.932;4.278;2023-04-23T11:46:23;100334.50;;;15.06;58.38
37298;BME280;30517;51.932;4.278;2023-04-23T11:49:04;100330.94;;;15.07;58.41
37298;BME280;30517;51.932;4.278;2023-04-23T11:51:46;100328.03;;;15.15;58.36
37298;BME280;30517;51.932;4.278;2023-04-23T11:54:27;100325.31;;;15.18;58.52
37298;BME280;30517;51.932;4.278;2023-04-23T11:57:09;100305.50;;;14.98;58.16
37298;BME280;30517;51.932;4.278;2023-04-23T11:59:52;100141.53;;;14.16;58.32
37298;BME280;30517;51.932;4.278;2023-04-23T12:02:33;100317.06;;;15.27;58.23
37298;BME280;30517;51.932;4.278;2023-04-23T12:05:14;100310.81;;;15.28;58.27
37298;BME280;30517;51.932;4.278;2023-04-23T12:08:08;100303.81;;;15.25;58.51
37298;BME280;30517;51.932;4.278;2023-04-23T12:10:56;100303.56;;;15.35;58.26
37298;BME280;30517;51.932;4.278;2023-04-23T12:13:39;100310.50;;;15.39;58.43
37298;BME280;30517;51.932;4.278;2023-04-23T12:16:33;100204.13;;;14.84;58.00
37298;BME280;30517;51.932;4.278;2023-04-23T12:19:17;100257.03;;;15.21;58.12
37298;BME280;30517;51.932;4.278;2023-04-23T12:22:02;100287.38;;;15.42;58.00
37298;BME280;30517;51.932;4.278;2023-04-23T12:24:48;100300.34;;;15.53;58.38
37298;BME280;30517;51.932;4.278;2023-04-23T12:27:31;100277.66;;;15.41;58.14
37298;BME280;30517;51.932;4.278;2023-04-23T12:30:13;100311.88;;;15.52;57.87
37298;BME280;30517;51.932;4.278;2023-04-23T12:33:01;100334.19;;;15.46;58.08
37298;BME280;30517;51.932;4.278;2023-04-23T12:35:44;100360.66;;;15.49;58.25
37298;BME280;30517;51.932;4.278;2023-04-23T12:38:29;100347.66;;;15.40;58.17
37298;BME280;30517;51.932;4.278;2023-04-23T12:41:10;100281.78;;;15.22;58.23
37298;BME280;30517;51.932;4.278;2023-04-23T12:43:51;100277.34;;;15.22;58.31
37298;BME280;30517;51.932;4.278;2023-04-23T12:46:31;100277.06;;;15.32;58.62
37298;BME280;30517;51.932;4.278;2023-04-23T12:49:12;100290.25;;;15.35;61.00
37298;BME280;30517;51.932;4.278;2023-04-23T12:51:54;100322.25;;;15.60;60.90
37298;BME280;30517;51.932;4.278;2023-04-23T12:54:40;100301.13;;;15.55;59.62
37298;BME280;30517;51.932;4.278;2023-04-23T12:57:21;100300.59;;;15.74;59.63
37298;BME280;30517;51.932;4.278;2023-04-23T13:00:04;100158.75;;;14.93;59.30
37298;BME280;30517;51.932;4.278;2023-04-23T13:02:45;100295.03;;;15.81;59.04
37298;BME280;30517;51.932;4.278;2023-04-23T13:05:25;100250.69;;;15.54;59.05
37298;BME280;30517;51.932;4.278;2023-04-23T13:08:06;100269.06;;;15.61;58.64
37298;BME280;30517;51.932;4.278;2023-04-23T13:10:47;100308.19;;;15.86;58.84
37298;BME280;30517;51.932;4.278;2023-04-23T13:13:29;100208.44;;;15.44;58.78
37298;BME280;30517;51.932;4.278;2023-04-23T13:16:13;100278.00;;;15.87;58.66
37298;BME280;30517;51.932;4.278;2023-04-23T13:18:54;100276.16;;;15.89;58.75
37298;BME280;30517;51.932;4.278;2023-04-23T13:21:35;100258.72;;;15.80;58.50
37298;BME280;30517;51.932;4.278;2023-04-23T13:24:16;100230.03;;;15.62;58.96
37298;BME280;30517;51.932;4.278;2023-04-23T13:26:57;100274.50;;;15.85;59.86
37298;BME280;30517;51.932;4.278;2023-04-23T13:29:38;100239.72;;;15.64;59.68
37298;BME280;30517;51.932;4.278;2023-04-23T13:32:19;100202.97;;;15.51;59.43
37298;BME280;30517;51.932;4.278;2023-04-23T13:35:00;100266.34;;;15.91;59.53
37298;BME280;30517;51.932;4.278;2023-04-23T13:37:44;100236.66;;;15.77;59.57
37298;BME280;30517;51.932;4.278;2023-04-23T13:40:25;100252.94;;;15.94;59.28
37298;BME280;30517;51.932;4.278;2023-04-23T13:43:05;100173.72;;;15.51;59.26
37298;BME280;30517;51.932;4.278;2023-04-23T13:45:46;100244.00;;;15.97;59.27
37298;BME280;30517;51.932;4.278;2023-04-23T13:48:27;100190.09;;;15.63;59.05
37298;BME280;30517;51.932;4.278;2023-04-23T13:51:11;100179.53;;;15.62;58.80
37298;BME280;30517;51.932;4.278;2023-04-23T13:53:52;100238.59;;;15.98;59.05
37298;BME280;30517;51.932;4.278;2023-04-23T13:56:32;100230.59;;;16.00;58.99
37298;BME280;30517;51.932;4.278;2023-04-23T13:59:13;100224.59;;;15.93;59.02
37298;BME280;30517;51.932;4.278;2023-04-23T14:01:54;100215.75;;;15.92;59.12
37298;BME280;30517;51.932;4.278;2023-04-23T14:04:35;100215.84;;;15.89;58.84
37298;BME280;30517;51.932;4.278;2023-04-23T14:07:16;100227.84;;;16.01;58.66
37298;BME280;30517;51.932;4.278;2023-04-23T14:09:57;100227.84;;;16.01;58.72
37298;BME280;30517;51.932;4.278;2023-04-23T14:12:38;100210.13;;;16.02;58.76
37298;BME280;30517;51.932;4.278;2023-04-23T14:15:19;100198.06;;;15.91;58.79
37298;BME280;30517;51.932;4.278;2023-04-23T14:18:00;100224.28;;;16.02;58.55
37298;BME280;30517;51.932;4.278;2023-04-23T14:20:41;100196.13;;;15.97;58.57
37298;BME280;30517;51.932;4.278;2023-04-23T14:26:04;100207.41;;;16.03;58.64
37298;BME280;30517;51.932;4.278;2023-04-23T14:28:50;100175.13;;;15.87;58.62
37298;BME280;30517;51.932;4.278;2023-04-23T14:31:32;100202.94;;;16.04;58.93